Portada
METAR-TAF:

METAR-TAF

Aeroports :

Aeroport Internacional Maiquetía Simón Bolívar

Caracas, Veneçuela

latitud: 10-36N, longitud: 066-59W, altitud: 43 m

Observació

L'informe es va fer fa 18 minuts, a les 05:00 UTC
Vent calma
Temperatura 25°C
Humitat 94%
Pressió 1011 hPa
Visibilitat 10 km o més
Escasses núvols a una alçada de 1600 ft
Núvols disperses a una alçada de 10000 ft

METAR: SVMI 210500Z 00000KT 9999 FEW016 SCT100 25/24 Q1011

Hora: 01:18 (05:18 UTC)

Pronòstic

L'informe es va fer fa 7 hores i 18 minuts, a les 22:00 UTC
Pronòstic vàlid del 21 a les 00 UTC al 22 a les 00 UTC
Vent 2 kt del Est
Visibilitat: 9000 m
plugim
Probabilitat 30% :
Temporalment
l' 21 a les 01 UTC al 21 a les 05 UTC
Vent 5 kt del Est
Visibilitat: 8000 m
plugim

TAF: SVMI 202200Z 2100/2200 09002KT 9000 -DZ BNK016 TX30/18Z TN24/06Z PROB30 TEMPO 2101/2105 09005KT 8000 DZ BNK016

Observacions i pronòstics meteorològics de més de 4000 aeroports (METAR i TAF).

Les estacions disponibles són els punts grocs i vermells al mapa.

Posi el ratolí al punt desitjat per veure el nom de l'estació.

Feu clic per veure les observacions i els pronòstics meteorològics.

Per canviar el mapa: feu clic els botons verds amb una creu de color negre per apropar; al botó verd amb un guió per allunyar la imatge; o en les fletxes verdes per a mapes adjacents.


METAR-TAF: